Delta Virtual Airport Information Service

Syracuse Hancock International Airport

ICAO: KSYR Country: United States
Latitude: 43.1112 Longitude: -76.1063
Latest Arrival : DAC2014 (KSDF-KSYR) Latest Departure : JBU1815 (1) (KSYR-KJFK)


WX CaptureLIVE
Data provided by noaa.gov | Fetched at 14:16:59

METAR : KSYR 281854Z 18010KT 10SM SCT055 BKN075 BKN180 29/14 A2975 RMK AO2 SLP067 T02890144

TAF : KSYR 281722Z 2818/2918 19010G18KT P6SM SCT070 FM290100 16010KT P6SM BKN100 WS020/19035KT FM290900 18010KT P6SM BKN025 OVC040 FM291300 26008KT 5SM -SHRA BR OVC015


Runway Data for KSYR
Data provided by openaviationdata.com

Runway ID Mag Var Hdg Length Elevation Surface ILS Freq ILS Id ILS Slope
10 -13 100° 8988 ft 421 ft Asphalt 109.9 IMRZ 3
15 -13 146° 7494 ft 421 ft Asphalt -- -- --
28 -13 280° 8988 ft 421 ft Asphalt 109.9 ISYR 3
33 -13 326° 7494 ft 421 ft Asphalt -- -- --

Syracuse Hancock International Airport, United States
Use only for reference purposes



Not for navigational purposes.